CDT,Max TemperatureF,Mean TemperatureF,Min TemperatureF,Max Dew PointF,MeanDew PointF,Min DewpointF,Max Humidity, Mean Humidity, Min Humidity, Max Sea Level PressureIn, Mean Sea Level PressureIn, Min Sea Level PressureIn, Max VisibilityMiles, Mean VisibilityMiles, Min VisibilityMiles, Max Wind SpeedMPH, Mean Wind SpeedMPH, Max Gust SpeedMPH,PrecipitationIn, CloudCover, Events, WindDirDegrees
2013-9-1,99,85,70,72,69,64,93,63,33,29.94,29.88,29.81,10,9,5,15,5,18,0.00,0,,196
2013-9-2,97,85,73,76,72,70,100,72,43,29.96,29.91,29.87,10,7,2,17,5,22,0.04,2,Rain-Thunderstorm,253
2013-9-3,100,86,71,73,71,68,100,70,39,29.99,29.93,29.87,10,4,0,18,4,22,0.00,1,Fog,73
2013-9-4,99,86,72,67,64,60,79,55,30,30.09,30.02,29.97,10,10,10,12,6,17,0.00,1,,56
2013-9-5,99,84,68,68,63,58,87,57,27,30.12,30.07,30.01,10,10,9,12,3,15,0.00,0,,10
2013-9-6,99,83,66,72,66,62,87,59,31,30.11,30.04,29.97,10,10,8,8,2,13,0.00,1,,103
2013-9-7,98,84,69,72,68,62,97,65,33,30.08,30.01,29.93,10,9,4,9,1,13,0.00,0,,154
2013-9-8,98,83,67,70,67,64,90,63,35,30.01,29.97,29.90,10,9,6,9,3,13,0.00,0,,162
2013-9-9,97,82,66,70,65,62,100,67,33,30.06,30.00,29.96,10,8,2,10,2,14,0.00,0,,165
2013-9-10,97,83,69,73,68,65,90,63,35,30.14,30.07,30.02,10,9,5,16,2,23,0.06,1,,80
2013-9-11,96,84,72,72,68,64,93,65,36,30.15,30.09,30.02,10,8,4,9,1,20,T,2,,160
2013-9-12,99,83,67,69,66,61,93,62,30,30.08,30.00,29.91,10,9,4,12,2,15,0.00,1,,37
2013-9-13,96,84,72,75,69,57,93,68,43,29.97,29.91,29.84,10,7,2,26,6,32,0.22,3,Rain-Thunderstorm,45
2013-9-14,89,77,64,56,53,49,73,51,29,30.04,29.99,29.94,10,10,10,14,8,22,0.00,0,,59
2013-9-15,95,77,59,68,59,50,73,52,31,30.08,30.03,29.99,10,10,9,12,3,13,0.00,0,,52
2013-9-16,98,83,68,69,65,60,84,59,33,30.12,30.06,30.00,10,10,9,12,3,15,0.00,2,,59
2013-9-17,97,83,69,71,65,59,82,60,38,30.11,30.04,29.97,10,10,8,12,3,15,T,2,,57
2013-9-18,97,83,69,70,67,56,87,57,26,30.06,30.01,29.95,10,9,7,10,3,14,0.00,0,,131
2013-9-19,96,83,70,71,69,65,93,66,38,30.06,29.99,29.91,10,10,6,20,5,30,0.00,1,,161
2013-9-20,86,79,71,75,72,70,100,85,70,29.98,29.86,29.79,10,7,1,21,7,30,1.66,7,Rain-Thunderstorm,184
2013-9-21,83,72,60,70,66,54,93,68,42,29.90,29.84,29.79,10,9,2,16,9,21,0.07,6,Rain,17
2013-9-22,82,69,56,56,53,49,86,61,35,29.93,29.87,29.83,10,10,10,17,7,25,0.00,0,,43
2013-9-23,89,72,55,66,57,53,93,64,34,29.91,29.86,29.81,10,10,10,10,3,14,0.00,1,,71
2013-9-24,91,78,64,73,68,59,93,65,37,29.87,29.84,29.80,10,9,5,16,5,21,0.12,5,Rain-Thunderstorm,339
2013-9-25,87,76,64,64,60,57,93,65,37,29.87,29.83,29.80,10,10,9,15,4,20,0.00,0,,336
2013-9-26,90,74,58,65,60,57,100,69,38,29.97,29.90,29.85,10,5,0,12,2,14,0.00,0,Fog,61
2013-9-27,89,75,61,69,63,61,100,70,40,30.04,29.99,29.95,10,8,1,9,1,13,0.00,1,,162
2013-9-28,89,78,67,69,65,61,90,66,42,30.09,30.02,29.96,10,10,5,10,4,15,0.00,2,,170
2013-9-29,76,73,69,72,69,64,93,81,69,30.03,29.98,29.94,10,9,2,13,5,16,0.14,7,Rain,184
2013-9-30,87,79,70,72,69,67,97,77,57,29.95,29.92,29.86,10,9,6,14,4,18,T,5,Rain,188